Arklow Raider — EIXS — position and weather

sailwx.info

Track history (hours):
 
Tides and Currents Weather Stations Pressure Air Temp Water Temp Dewpoint Dewpoint Depression Visibility Wind Speed Wind Dir Waves Ship Positions

Arklow Raider

Last reported at 2016-May-04 23:30 UTC. Time now 2016-May-05 02:54 UTC.
Position N 50°21' E 000°25'.

Length 90 m; draft 5.8 m.

Type: Ship. MMSI: 250001268.

Date/timePositionNaut miles runAvg speedWind from/ knotsBaromVisibWave heightAir tempDewpointWater temp
2016-May-04 23:30N 50°21' E 000°25'8 8.7
2016-May-04 22:33N 50°19' E 000°13'9 9.0
2016-May-04 21:32N 50°17' W 000°02'11 9.9
2016-May-04 20:27N 50°14' W 000°18'1011.5
2016-May-04 19:33N 50°11' W 000°33'1312.4
2016-May-04 18:32N 50°08' W 000°52'1313.3
2016-May-04 17:33N 50°05' W 001°12'1413.5
2016-May-04 16:31N 50°01' W 001°33'5910.0
2016-May-04 10:33N 49°45' W 003°01'9 9.2
2016-May-04 09:33N 49°40' W 003°14'11 9.5
2016-May-04 08:24N 49°35' W 003°29'8 9.8
2016-May-04 07:33N 49°31' W 003°39'1010.1
2016-May-04 06:33N 49°25' W 003°53'1110.6
2016-May-04 05:33N 49°20' W 004°07'8210.2
2016-May-03 21:33N 48°21' W 005°33'33010.6
2016-May-02 14:32N 43°35' W 001°36'6 0.3
2016-May-01 20:25N 43°32' W 001°30'0 0.0
2016-May-01 09:07N 43°32' W 001°30'0 0.0
2016-Apr-30 23:31N 43°32' W 001°30'0 0.0
2016-Apr-30 22:13N 43°32' W 001°30'0 0.0
2016-Apr-30 21:13N 43°32' W 001°30'0 0.0
2016-Apr-30 18:19N 43°32' W 001°30'0 0.0
2016-Apr-30 09:19N 43°32' W 001°30'0 0.0
2016-Apr-29 17:07N 43°32' W 001°30'4 6.0
2016-Apr-29 16:30N 43°32' W 001°35'4 4.6
2016-Apr-29 15:33N 43°33' W 001°41'5 4.7
2016-Apr-29 14:33N 43°33' W 001°47'154 8.4
2016-Apr-28 20:15N 43°44' W 005°19'6 8.6
2016-Apr-28 19:33N 43°44' W 005°27'17 8.6
2016-Apr-28 17:33N 43°45' W 005°51'269 5.8
2016-Apr-26 19:26N 40°21' W 009°49'16 7.5
2016-Apr-26 17:21N 40°06' W 009°49'8 7.9
2016-Apr-26 16:24N 39°58' W 009°49'7 8.0
2016-Apr-26 15:33N 39°51' W 009°49'8 8.0
2016-Apr-26 14:33N 39°43' W 009°49'9 9.3
2016-Apr-26 13:33N 39°34' W 009°50'8 8.0
2016-Apr-26 12:32N 39°26' W 009°50'8 7.9
2016-Apr-26 11:33N 39°18' W 009°50'8 7.8
2016-Apr-26 10:32N 39°10' W 009°50'8 7.7
2016-Apr-26 09:34N 39°03' W 009°50'8 7.8
2016-Apr-26 08:32N 38°55' W 009°50'8 7.8
2016-Apr-26 07:33N 38°47' W 009°50'8 7.7
2016-Apr-26 06:33N 38°39' W 009°49'8 7.7
2016-Apr-26 05:33N 38°34' W 009°42'8 7.9
2016-Apr-26 04:33N 38°28' W 009°35'8 8.2
2016-Apr-26 03:33N 38°22' W 009°28'9 8.8
2016-Apr-26 02:33N 38°16' W 009°20'9 8.7
2016-Apr-26 01:33N 38°10' W 009°12'9 8.8
2016-Apr-26 00:33N 38°04' W 009°04'1010.0
2016-Apr-25 23:33N 37°56' W 008°55'3 2.7
2016-Apr-25 22:32N 37°56' W 008°52'0 0.0
2016-Apr-25 21:32N 37°56' W 008°52'0 0.0
2016-Apr-25 20:32N 37°56' W 008°52'0 0.0
2016-Apr-25 19:32N 37°56' W 008°52'0 0.0
2016-Apr-25 18:32N 37°56' W 008°52'0 0.0
2016-Apr-25 17:32N 37°56' W 008°52'0 0.0
2016-Apr-25 16:32N 37°56' W 008°52'0 0.0
2016-Apr-25 15:29N 37°56' W 008°52'0 0.0
2016-Apr-25 14:29N 37°56' W 008°52'0 0.0
2016-Apr-25 13:32N 37°56' W 008°52'0 0.0
2016-Apr-25 12:29N 37°56' W 008°52'0 0.0
2016-Apr-25 11:32N 37°56' W 008°52'0 0.0
2016-Apr-25 10:32N 37°56' W 008°52'0 0.0
2016-Apr-25 09:32N 37°56' W 008°52'0 0.0
2016-Apr-25 08:29N 37°56' W 008°52'0 0.0
2016-Apr-25 07:32N 37°56' W 008°52'0 0.0
2016-Apr-25 06:32N 37°56' W 008°52'1 1.4
2016-Apr-25 05:33N 37°56' W 008°53'3 3.0
2016-Apr-25 04:33N 37°58' W 008°56'9 9.1
2016-Apr-25 03:33N 38°04' W 009°05'9 9.3
2016-Apr-25 02:33N 38°09' W 009°14'9 9.4
2016-Apr-25 01:33N 38°14' W 009°24'9 9.4
2016-Apr-25 00:33N 38°20' W 009°34'9 9.4
2016-Apr-24 23:33N 38°26' W 009°44'  
Track history (hours):
 
Tides and Currents Weather Stations Pressure Air Temp Water Temp Dewpoint Dewpoint Depression Visibility Wind Speed Wind Dir Waves Ship Positions

Arklow Raider

Last reported at 2016-May-04 23:30 UTC. Time now 2016-May-05 02:54 UTC.
Position N 50°21' E 000°25'.

Length 90 m; draft 5.8 m.

Type: Ship. MMSI: 250001268.

Date/timePositionNaut miles runAvg speedWind from/ knotsBaromVisibWave heightAir tempDewpointWater temp
2016-May-04 23:30N 50°21' E 000°25'8 8.7
2016-May-04 22:33N 50°19' E 000°13'9 9.0
2016-May-04 21:32N 50°17' W 000°02'11 9.9
2016-May-04 20:27N 50°14' W 000°18'1011.5
2016-May-04 19:33N 50°11' W 000°33'1312.4
2016-May-04 18:32N 50°08' W 000°52'1313.3
2016-May-04 17:33N 50°05' W 001°12'1413.5
2016-May-04 16:31N 50°01' W 001°33'5910.0
2016-May-04 10:33N 49°45' W 003°01'9 9.2
2016-May-04 09:33N 49°40' W 003°14'11 9.5
2016-May-04 08:24N 49°35' W 003°29'8 9.8
2016-May-04 07:33N 49°31' W 003°39'1010.1
2016-May-04 06:33N 49°25' W 003°53'1110.6
2016-May-04 05:33N 49°20' W 004°07'8210.2
2016-May-03 21:33N 48°21' W 005°33'33010.6
2016-May-02 14:32N 43°35' W 001°36'6 0.3
2016-May-01 20:25N 43°32' W 001°30'0 0.0
2016-May-01 09:07N 43°32' W 001°30'0 0.0
2016-Apr-30 23:31N 43°32' W 001°30'0 0.0
2016-Apr-30 22:13N 43°32' W 001°30'0 0.0
2016-Apr-30 21:13N 43°32' W 001°30'0 0.0
2016-Apr-30 18:19N 43°32' W 001°30'0 0.0
2016-Apr-30 09:19N 43°32' W 001°30'0 0.0
2016-Apr-29 17:07N 43°32' W 001°30'4 6.0
2016-Apr-29 16:30N 43°32' W 001°35'4 4.6
2016-Apr-29 15:33N 43°33' W 001°41'5 4.7
2016-Apr-29 14:33N 43°33' W 001°47'154 8.4
2016-Apr-28 20:15N 43°44' W 005°19'6 8.6
2016-Apr-28 19:33N 43°44' W 005°27'17 8.6
2016-Apr-28 17:33N 43°45' W 005°51'269 5.8
2016-Apr-26 19:26N 40°21' W 009°49'16 7.5
2016-Apr-26 17:21N 40°06' W 009°49'8 7.9
2016-Apr-26 16:24N 39°58' W 009°49'7 8.0
2016-Apr-26 15:33N 39°51' W 009°49'8 8.0
2016-Apr-26 14:33N 39°43' W 009°49'9 9.3
2016-Apr-26 13:33N 39°34' W 009°50'8 8.0
2016-Apr-26 12:32N 39°26' W 009°50'8 7.9
2016-Apr-26 11:33N 39°18' W 009°50'8 7.8
2016-Apr-26 10:32N 39°10' W 009°50'8 7.7
2016-Apr-26 09:34N 39°03' W 009°50'8 7.8
2016-Apr-26 08:32N 38°55' W 009°50'8 7.8
2016-Apr-26 07:33N 38°47' W 009°50'8 7.7
2016-Apr-26 06:33N 38°39' W 009°49'8 7.7
2016-Apr-26 05:33N 38°34' W 009°42'8 7.9
2016-Apr-26 04:33N 38°28' W 009°35'8 8.2
2016-Apr-26 03:33N 38°22' W 009°28'9 8.8
2016-Apr-26 02:33N 38°16' W 009°20'9 8.7
2016-Apr-26 01:33N 38°10' W 009°12'9 8.8
2016-Apr-26 00:33N 38°04' W 009°04'1010.0
2016-Apr-25 23:33N 37°56' W 008°55'3 2.7
2016-Apr-25 22:32N 37°56' W 008°52'0 0.0
2016-Apr-25 21:32N 37°56' W 008°52'0 0.0
2016-Apr-25 20:32N 37°56' W 008°52'0 0.0
2016-Apr-25 19:32N 37°56' W 008°52'0 0.0
2016-Apr-25 18:32N 37°56' W 008°52'0 0.0
2016-Apr-25 17:32N 37°56' W 008°52'0 0.0
2016-Apr-25 16:32N 37°56' W 008°52'0 0.0
2016-Apr-25 15:29N 37°56' W 008°52'0 0.0
2016-Apr-25 14:29N 37°56' W 008°52'0 0.0
2016-Apr-25 13:32N 37°56' W 008°52'0 0.0
2016-Apr-25 12:29N 37°56' W 008°52'0 0.0
2016-Apr-25 11:32N 37°56' W 008°52'0 0.0
2016-Apr-25 10:32N 37°56' W 008°52'0 0.0
2016-Apr-25 09:32N 37°56' W 008°52'0 0.0
2016-Apr-25 08:29N 37°56' W 008°52'0 0.0
2016-Apr-25 07:32N 37°56' W 008°52'0 0.0
2016-Apr-25 06:32N 37°56' W 008°52'1 1.4
2016-Apr-25 05:33N 37°56' W 008°53'3 3.0
2016-Apr-25 04:33N 37°58' W 008°56'9 9.1
2016-Apr-25 03:33N 38°04' W 009°05'9 9.3
2016-Apr-25 02:33N 38°09' W 009°14'9 9.4
2016-Apr-25 01:33N 38°14' W 009°24'9 9.4
2016-Apr-25 00:33N 38°20' W 009°34'9 9.4
2016-Apr-24 23:33N 38°26' W 009°44'  

Dump ship's entire track history